sensor_id;sensor_type;location;lat;lon;timestamp;pressure;altitude;pressure_sealevel;temperature;humidity
56006;BME280;41888;44.696;10.522;2022-09-13T00:02:07;100366.31;;;18.92;100.00
56006;BME280;41888;44.696;10.522;2022-09-13T00:04:33;100365.53;;;18.96;100.00
56006;BME280;41888;44.696;10.522;2022-09-13T00:06:59;100365.28;;;18.98;100.00
56006;BME280;41888;44.696;10.522;2022-09-13T00:09:25;100363.31;;;18.93;100.00
56006;BME280;41888;44.696;10.522;2022-09-13T00:11:51;100366.31;;;18.92;100.00
56006;BME280;41888;44.696;10.522;2022-09-13T00:14:18;100370.84;;;18.86;100.00
56006;BME280;41888;44.696;10.522;2022-09-13T00:16:44;100361.94;;;18.86;100.00
56006;BME280;41888;44.696;10.522;2022-09-13T00:19:10;100362.22;;;18.89;100.00
56006;BME280;41888;44.696;10.522;2022-09-13T00:21:36;100367.13;;;18.92;100.00
56006;BME280;41888;44.696;10.522;2022-09-13T00:24:02;100366.34;;;18.97;100.00
56006;BME280;41888;44.696;10.522;2022-09-13T00:26:28;100368.00;;;19.03;100.00
56006;BME280;41888;44.696;10.522;2022-09-13T00:28:58;100360.97;;;19.02;100.00
56006;BME280;41888;44.696;10.522;2022-09-13T00:31:26;100355.84;;;19.06;100.00
56006;BME280;41888;44.696;10.522;2022-09-13T00:33:53;100363.31;;;18.93;100.00
56006;BME280;41888;44.696;10.522;2022-09-13T00:36:19;100363.63;;;18.97;100.00
56006;BME280;41888;44.696;10.522;2022-09-13T00:38:45;100372.25;;;18.99;100.00
56006;BME280;41888;44.696;10.522;2022-09-13T00:41:14;100365.53;;;18.96;100.00
56006;BME280;41888;44.696;10.522;2022-09-13T00:43:57;100354.19;;;18.94;100.00
56006;BME280;41888;44.696;10.522;2022-09-13T00:46:40;100363.03;;;18.85;100.00
56006;BME280;41888;44.696;10.522;2022-09-13T00:49:21;100361.44;;;18.94;100.00
56006;BME280;41888;44.696;10.522;2022-09-13T00:51:52;100352.47;;;18.78;100.00
56006;BME280;41888;44.696;10.522;2022-09-13T00:54:22;100348.94;;;18.78;100.00
56006;BME280;41888;44.696;10.522;2022-09-13T00:56:54;100351.34;;;18.69;100.00
56006;BME280;41888;44.696;10.522;2022-09-13T00:59:26;100349.44;;;18.70;100.00
56006;BME280;41888;44.696;10.522;2022-09-13T01:01:55;100348.09;;;18.72;100.00
56006;BME280;41888;44.696;10.522;2022-09-13T01:04:24;100350.53;;;18.69;100.00
56006;BME280;41888;44.696;10.522;2022-09-13T01:06:53;100337.28;;;18.67;100.00
56006;BME280;41888;44.696;10.522;2022-09-13T01:09:20;100335.66;;;18.61;100.00
56006;BME280;41888;44.696;10.522;2022-09-13T01:12:19;100330.81;;;18.63;100.00
56006;BME280;41888;44.696;10.522;2022-09-13T01:14:48;100336.09;;;18.53;100.00
56006;BME280;41888;44.696;10.522;2022-09-13T01:17:14;100330.22;;;18.56;100.00
56006;BME280;41888;44.696;10.522;2022-09-13T01:19:41;100336.91;;;18.53;100.00
56006;BME280;41888;44.696;10.522;2022-09-13T01:22:28;100333.72;;;18.56;100.00
56006;BME280;41888;44.696;10.522;2022-09-13T01:30:26;100322.00;;;18.41;100.00
56006;BME280;41888;44.696;10.522;2022-09-13T01:35:41;100323.09;;;18.40;100.00
56006;BME280;41888;44.696;10.522;2022-09-13T01:46:14;100323.47;;;18.22;100.00
56006;BME280;41888;44.696;10.522;2022-09-13T01:51:58;100328.63;;;18.23;100.00
56006;BME280;41888;44.696;10.522;2022-09-13T01:54:53;100334.16;;;18.11;100.00
56006;BME280;41888;44.696;10.522;2022-09-13T01:57:30;100338.75;;;18.11;100.00
56006;BME280;41888;44.696;10.522;2022-09-13T02:00:15;100341.09;;;18.02;100.00
56006;BME280;41888;44.696;10.522;2022-09-13T02:02:49;100352.34;;;17.99;100.00
56006;BME280;41888;44.696;10.522;2022-09-13T02:08:18;100352.56;;;17.93;100.00
56006;BME280;41888;44.696;10.522;2022-09-13T02:10:55;100344.69;;;18.13;100.00
56006;BME280;41888;44.696;10.522;2022-09-13T02:13:28;100341.81;;;18.25;100.00
56006;BME280;41888;44.696;10.522;2022-09-13T02:16:04;100336.97;;;18.27;100.00
56006;BME280;41888;44.696;10.522;2022-09-13T02:18:41;100337.97;;;18.15;100.00
56006;BME280;41888;44.696;10.522;2022-09-13T02:21:19;100346.97;;;17.99;100.00
56006;BME280;41888;44.696;10.522;2022-09-13T02:23:50;100343.09;;;17.85;100.00
56006;BME280;41888;44.696;10.522;2022-09-13T02:26:20;100339.28;;;17.81;100.00
56006;BME280;41888;44.696;10.522;2022-09-13T02:28:50;100339.47;;;17.75;100.00
56006;BME280;41888;44.696;10.522;2022-09-13T02:31:36;100338.13;;;17.77;100.00
56006;BME280;41888;44.696;10.522;2022-09-13T02:36:53;100344.63;;;17.76;100.00
56006;BME280;41888;44.696;10.522;2022-09-13T02:39:23;100334.63;;;17.77;100.00
56006;BME280;41888;44.696;10.522;2022-09-13T02:42:03;100332.03;;;17.82;100.00
56006;BME280;41888;44.696;10.522;2022-09-13T02:44:40;100335.47;;;18.09;100.00
56006;BME280;41888;44.696;10.522;2022-09-13T02:47:29;100331.81;;;18.20;100.00
56006;BME280;41888;44.696;10.522;2022-09-13T02:58:44;100349.41;;;17.74;100.00
56006;BME280;41888;44.696;10.522;2022-09-13T03:01:12;100345.63;;;17.97;100.00
56006;BME280;41888;44.696;10.522;2022-09-13T03:03:39;100338.41;;;18.02;100.00
56006;BME280;41888;44.696;10.522;2022-09-13T03:06:05;100340.03;;;18.08;100.00
56006;BME280;41888;44.696;10.522;2022-09-13T03:08:31;100339.09;;;17.93;100.00
56006;BME280;41888;44.696;10.522;2022-09-13T03:11:12;100337.22;;;17.93;100.00
56006;BME280;41888;44.696;10.522;2022-09-13T03:14:13;100340.94;;;17.87;100.00
56006;BME280;41888;44.696;10.522;2022-09-13T03:30:13;100338.63;;;17.25;100.00
56006;BME280;41888;44.696;10.522;2022-09-13T03:35:39;100330.13;;;17.12;100.00
56006;BME280;41888;44.696;10.522;2022-09-13T03:38:18;100332.63;;;16.97;100.00
56006;BME280;41888;44.696;10.522;2022-09-13T03:40:54;100329.94;;;16.97;100.00
56006;BME280;41888;44.696;10.522;2022-09-13T03:43:37;100332.09;;;17.00;100.00
56006;BME280;41888;44.696;10.522;2022-09-13T03:46:11;100327.16;;;17.13;100.00
56006;BME280;41888;44.696;10.522;2022-09-13T03:48:41;100328.56;;;17.16;100.00
56006;BME280;41888;44.696;10.522;2022-09-13T03:51:09;100334.13;;;17.31;100.00
56006;BME280;41888;44.696;10.522;2022-09-13T03:53:41;100331.25;;;17.38;100.00
56006;BME280;41888;44.696;10.522;2022-09-13T03:56:13;100336.22;;;17.29;100.00
56006;BME280;41888;44.696;10.522;2022-09-13T03:58:39;100333.28;;;17.09;100.00
56006;BME280;41888;44.696;10.522;2022-09-13T04:01:06;100345.91;;;17.08;100.00
56006;BME280;41888;44.696;10.522;2022-09-13T04:03:32;100337.41;;;16.95;100.00
56006;BME280;41888;44.696;10.522;2022-09-13T04:05:58;100337.13;;;16.91;100.00
56006;BME280;41888;44.696;10.522;2022-09-13T04:08:24;100341.84;;;16.84;100.00
56006;BME280;41888;44.696;10.522;2022-09-13T04:10:50;100335.81;;;16.77;100.00
56006;BME280;41888;44.696;10.522;2022-09-13T04:13:17;100342.34;;;16.81;100.00
56006;BME280;41888;44.696;10.522;2022-09-13T04:15:43;100344.22;;;16.80;100.00
56006;BME280;41888;44.696;10.522;2022-09-13T04:18:09;100349.91;;;16.84;100.00
56006;BME280;41888;44.696;10.522;2022-09-13T04:20:36;100346.72;;;16.87;100.00
56006;BME280;41888;44.696;10.522;2022-09-13T04:23:02;100345.34;;;16.84;100.00
56006;BME280;41888;44.696;10.522;2022-09-13T04:25:28;100348.69;;;16.92;100.00
56006;BME280;41888;44.696;10.522;2022-09-13T04:27:56;100342.13;;;17.04;100.00
56006;BME280;41888;44.696;10.522;2022-09-13T04:30:25;100350.31;;;17.14;100.00
56006;BME280;41888;44.696;10.522;2022-09-13T04:32:52;100341.19;;;17.15;100.00
56006;BME280;41888;44.696;10.522;2022-09-13T04:35:19;100353.50;;;17.11;100.00
56006;BME280;41888;44.696;10.522;2022-09-13T04:37:45;100343.91;;;16.99;100.00
56006;BME280;41888;44.696;10.522;2022-09-13T04:40:12;100332.22;;;16.88;100.00
56006;BME280;41888;44.696;10.522;2022-09-13T04:42:39;100334.91;;;16.88;100.00
56006;BME280;41888;44.696;10.522;2022-09-13T04:45:06;100335.47;;;16.90;100.00
56006;BME280;41888;44.696;10.522;2022-09-13T04:47:33;100331.53;;;16.98;100.00
56006;BME280;41888;44.696;10.522;2022-09-13T04:49:59;100340.41;;;16.98;100.00
56006;BME280;41888;44.696;10.522;2022-09-13T04:52:25;100337.31;;;17.06;100.00
56006;BME280;41888;44.696;10.522;2022-09-13T04:54:51;100339.19;;;17.06;100.00
56006;BME280;41888;44.696;10.522;2022-09-13T04:57:17;100338.88;;;17.02;100.00
56006;BME280;41888;44.696;10.522;2022-09-13T04:59:43;100340.53;;;17.08;100.00
56006;BME280;41888;44.696;10.522;2022-09-13T05:02:10;100336.66;;;16.99;100.00
56006;BME280;41888;44.696;10.522;2022-09-13T05:04:36;100344.19;;;16.97;100.00
56006;BME280;41888;44.696;10.522;2022-09-13T05:07:03;100338.41;;;16.88;100.00
56006;BME280;41888;44.696;10.522;2022-09-13T05:09:29;100343.72;;;16.83;100.00
56006;BME280;41888;44.696;10.522;2022-09-13T05:11:55;100349.09;;;16.83;100.00
56006;BME280;41888;44.696;10.522;2022-09-13T05:14:22;100347.50;;;17.04;100.00
56006;BME280;41888;44.696;10.522;2022-09-13T05:16:48;100346.06;;;17.62;100.00
56006;BME280;41888;44.696;10.522;2022-09-13T05:19:14;100341.25;;;18.23;100.00
56006;BME280;41888;44.696;10.522;2022-09-13T05:21:40;100342.00;;;18.82;100.00
56006;BME280;41888;44.696;10.522;2022-09-13T05:24:07;100345.69;;;19.23;100.00
56006;BME280;41888;44.696;10.522;2022-09-13T05:26:33;100346.16;;;19.77;98.87
56006;BME280;41888;44.696;10.522;2022-09-13T05:29:00;100345.38;;;19.92;97.58
56006;BME280;41888;44.696;10.522;2022-09-13T05:31:32;100350.00;;;20.37;94.89
56006;BME280;41888;44.696;10.522;2022-09-13T05:34:02;100353.97;;;20.90;90.78
56006;BME280;41888;44.696;10.522;2022-09-13T05:36:29;100361.00;;;21.01;89.25
56006;BME280;41888;44.696;10.522;2022-09-13T05:38:56;100361.97;;;21.40;87.08
56006;BME280;41888;44.696;10.522;2022-09-13T05:41:23;100359.66;;;21.68;85.34
56006;BME280;41888;44.696;10.522;2022-09-13T05:43:49;100357.00;;;22.41;81.45
56006;BME280;41888;44.696;10.522;2022-09-13T05:46:17;100345.47;;;22.54;79.85
56006;BME280;41888;44.696;10.522;2022-09-13T05:48:45;100357.44;;;23.05;77.03
56006;BME280;41888;44.696;10.522;2022-09-13T05:53:41;100353.22;;;23.42;75.41
56006;BME280;41888;44.696;10.522;2022-09-13T05:56:10;100357.97;;;23.92;72.66
56006;BME280;41888;44.696;10.522;2022-09-13T05:58:40;100360.16;;;24.09;72.03
56006;BME280;41888;44.696;10.522;2022-09-13T06:01:08;100354.22;;;24.58;69.11
56006;BME280;41888;44.696;10.522;2022-09-13T06:03:35;100358.31;;;24.42;69.99
56006;BME280;41888;44.696;10.522;2022-09-13T06:06:02;100359.69;;;24.39;70.12
56006;BME280;41888;44.696;10.522;2022-09-13T06:08:30;100361.66;;;24.80;68.23
56006;BME280;41888;44.696;10.522;2022-09-13T06:10:58;100361.84;;;25.16;66.76
56006;BME280;41888;44.696;10.522;2022-09-13T06:13:26;100366.06;;;24.95;66.55
56006;BME280;41888;44.696;10.522;2022-09-13T06:15:54;100365.56;;;26.19;61.88
56006;BME280;41888;44.696;10.522;2022-09-13T06:18:21;100357.66;;;26.54;59.70
56006;BME280;41888;44.696;10.522;2022-09-13T06:20:48;100368.03;;;27.05;59.24
56006;BME280;41888;44.696;10.522;2022-09-13T06:23:14;100372.25;;;27.85;56.51
56006;BME280;41888;44.696;10.522;2022-09-13T06:25:41;100375.94;;;27.54;56.45
56006;BME280;41888;44.696;10.522;2022-09-13T06:28:08;100373.47;;;28.56;53.71
56006;BME280;41888;44.696;10.522;2022-09-13T06:30:35;100369.72;;;29.33;50.56
56006;BME280;41888;44.696;10.522;2022-09-13T06:33:01;100371.88;;;29.48;50.18
56006;BME280;41888;44.696;10.522;2022-09-13T06:35:27;100375.88;;;30.01;48.66
56006;BME280;41888;44.696;10.522;2022-09-13T06:37:55;100376.88;;;29.96;48.67
56006;BME280;41888;44.696;10.522;2022-09-13T06:40:23;100377.31;;;30.97;46.08
56006;BME280;41888;44.696;10.522;2022-09-13T06:42:49;100367.03;;;31.06;44.40
56006;BME280;41888;44.696;10.522;2022-09-13T06:45:16;100367.13;;;30.40;45.35
56006;BME280;41888;44.696;10.522;2022-09-13T06:47:43;100366.75;;;30.75;44.77
56006;BME280;41888;44.696;10.522;2022-09-13T06:50:09;100359.03;;;31.13;43.49
56006;BME280;41888;44.696;10.522;2022-09-13T06:52:35;100360.72;;;31.42;43.51
56006;BME280;41888;44.696;10.522;2022-09-13T06:55:02;100349.25;;;32.04;42.28
56006;BME280;41888;44.696;10.522;2022-09-13T06:57:31;100348.84;;;32.46;40.01
56006;BME280;41888;44.696;10.522;2022-09-13T06:59:57;100356.50;;;32.68;39.50
56006;BME280;41888;44.696;10.522;2022-09-13T07:02:23;100354.56;;;32.84;39.66
56006;BME280;41888;44.696;10.522;2022-09-13T07:04:50;100356.09;;;32.66;39.46
56006;BME280;41888;44.696;10.522;2022-09-13T07:07:16;100351.31;;;31.95;40.26
56006;BME280;41888;44.696;10.522;2022-09-13T07:09:43;100349.28;;;31.28;41.29
56006;BME280;41888;44.696;10.522;2022-09-13T07:12:09;100346.81;;;30.00;43.92
56006;BME280;41888;44.696;10.522;2022-09-13T07:14:35;100342.31;;;28.95;45.96
56006;BME280;41888;44.696;10.522;2022-09-13T07:17:01;100349.84;;;28.51;49.00
56006;BME280;41888;44.696;10.522;2022-09-13T07:19:28;100345.38;;;28.30;50.60
56006;BME280;41888;44.696;10.522;2022-09-13T07:21:55;100338.25;;;27.43;51.66
56006;BME280;41888;44.696;10.522;2022-09-13T07:24:22;100338.59;;;26.93;53.70
56006;BME280;41888;44.696;10.522;2022-09-13T07:26:49;100330.78;;;26.78;53.67
56006;BME280;41888;44.696;10.522;2022-09-13T07:29:17;100325.50;;;26.51;54.96
56006;BME280;41888;44.696;10.522;2022-09-13T07:31:46;100321.91;;;26.64;55.03
56006;BME280;41888;44.696;10.522;2022-09-13T07:34:17;100321.94;;;26.41;55.51
56006;BME280;41888;44.696;10.522;2022-09-13T07:36:45;100323.75;;;26.55;55.64
56006;BME280;41888;44.696;10.522;2022-09-13T07:39:12;100312.38;;;26.53;55.71
56006;BME280;41888;44.696;10.522;2022-09-13T07:41:39;100312.19;;;25.82;56.43
56006;BME280;41888;44.696;10.522;2022-09-13T07:44:05;100308.41;;;25.92;55.89
56006;BME280;41888;44.696;10.522;2022-09-13T07:46:34;100319.84;;;26.16;54.83
56006;BME280;41888;44.696;10.522;2022-09-13T07:49:09;100326.16;;;26.47;54.91
56006;BME280;41888;44.696;10.522;2022-09-13T07:51:38;100337.19;;;26.42;55.14
56006;BME280;41888;44.696;10.522;2022-09-13T07:54:06;100342.13;;;26.18;55.17
56006;BME280;41888;44.696;10.522;2022-09-13T07:56:36;100354.19;;;26.17;56.72
56006;BME280;41888;44.696;10.522;2022-09-13T07:59:05;100353.38;;;26.17;57.60
56006;BME280;41888;44.696;10.522;2022-09-13T08:01:36;100359.38;;;26.05;58.43
56006;BME280;41888;44.696;10.522;2022-09-13T08:04:05;100368.69;;;26.26;59.03
56006;BME280;41888;44.696;10.522;2022-09-13T08:06:33;100364.22;;;26.30;58.13
56006;BME280;41888;44.696;10.522;2022-09-13T08:09:00;100352.94;;;26.45;58.09
56006;BME280;41888;44.696;10.522;2022-09-13T08:11:35;100353.53;;;26.20;59.32
56006;BME280;41888;44.696;10.522;2022-09-13T08:14:02;100347.59;;;26.18;58.01
56006;BME280;41888;44.696;10.522;2022-09-13T08:16:29;100345.00;;;25.91;59.77
56006;BME280;41888;44.696;10.522;2022-09-13T08:18:58;100346.97;;;25.99;60.59
56006;BME280;41888;44.696;10.522;2022-09-13T08:21:25;100348.50;;;26.14;59.27
56006;BME280;41888;44.696;10.522;2022-09-13T08:23:57;100360.13;;;26.41;59.92
56006;BME280;41888;44.696;10.522;2022-09-13T08:26:29;100356.63;;;26.49;59.87
56006;BME280;41888;44.696;10.522;2022-09-13T08:29:02;100360.69;;;26.52;58.68
56006;BME280;41888;44.696;10.522;2022-09-13T08:31:29;100369.25;;;26.59;58.80
56006;BME280;41888;44.696;10.522;2022-09-13T08:33:56;100375.97;;;26.62;58.72
56006;BME280;41888;44.696;10.522;2022-09-13T08:36:23;100366.72;;;26.71;59.17
56006;BME280;41888;44.696;10.522;2022-09-13T08:38:51;100363.38;;;27.05;57.08
56006;BME280;41888;44.696;10.522;2022-09-13T08:41:30;100358.38;;;27.07;58.41
56006;BME280;41888;44.696;10.522;2022-09-13T08:44:33;100357.47;;;27.20;58.46
56006;BME280;41888;44.696;10.522;2022-09-13T08:49:47;100356.97;;;27.18;58.19
56006;BME280;41888;44.696;10.522;2022-09-13T08:52:19;100363.69;;;27.52;57.54
56006;BME280;41888;44.696;10.522;2022-09-13T08:54:50;100366.22;;;27.48;57.98
56006;BME280;41888;44.696;10.522;2022-09-13T09:00:06;100386.50;;;27.56;57.07
56006;BME280;41888;44.696;10.522;2022-09-13T09:03:45;100388.28;;;27.52;57.20
56006;BME280;41888;44.696;10.522;2022-09-13T09:05:48;100397.28;;;27.61;57.64
56006;BME280;41888;44.696;10.522;2022-09-13T09:08:32;100385.25;;;27.62;58.06
56006;BME280;41888;44.696;10.522;2022-09-13T09:11:09;100381.25;;;27.77;57.65
56006;BME280;41888;44.696;10.522;2022-09-13T09:13:53;100386.09;;;27.97;56.33
56006;BME280;41888;44.696;10.522;2022-09-13T09:16:48;100385.78;;;28.16;55.93
56006;BME280;41888;44.696;10.522;2022-09-13T09:19:32;100384.00;;;28.11;55.43
56006;BME280;41888;44.696;10.522;2022-09-13T09:22:03;100381.44;;;28.32;56.27
56006;BME280;41888;44.696;10.522;2022-09-13T09:24:34;100397.03;;;28.31;56.24
56006;BME280;41888;44.696;10.522;2022-09-13T09:27:11;100397.31;;;28.64;56.03
56006;BME280;41888;44.696;10.522;2022-09-13T09:29:39;100389.19;;;28.93;55.10
56006;BME280;41888;44.696;10.522;2022-09-13T09:32:44;100386.94;;;29.25;54.84
56006;BME280;41888;44.696;10.522;2022-09-13T09:35:29;100380.06;;;28.72;54.39
56006;BME280;41888;44.696;10.522;2022-09-13T09:38:32;100381.25;;;28.54;54.60
56006;BME280;41888;44.696;10.522;2022-09-13T09:41:06;100373.63;;;28.77;54.11
56006;BME280;41888;44.696;10.522;2022-09-13T09:46:29;100379.09;;;28.77;53.66
56006;BME280;41888;44.696;10.522;2022-09-13T09:49:06;100386.00;;;28.91;52.29
56006;BME280;41888;44.696;10.522;2022-09-13T09:52:00;100374.13;;;29.46;52.18
56006;BME280;41888;44.696;10.522;2022-09-13T09:54:27;100369.38;;;29.34;51.34
56006;BME280;41888;44.696;10.522;2022-09-13T09:56:56;100370.97;;;29.35;52.01
56006;BME280;41888;44.696;10.522;2022-09-13T09:59:28;100364.91;;;29.51;50.47
56006;BME280;41888;44.696;10.522;2022-09-13T10:02:00;100358.66;;;29.12;50.76
56006;BME280;41888;44.696;10.522;2022-09-13T10:04:30;100357.88;;;29.41;51.11
56006;BME280;41888;44.696;10.522;2022-09-13T10:07:10;100333.47;;;29.19;51.35
56006;BME280;41888;44.696;10.522;2022-09-13T10:12:53;100332.63;;;29.56;49.50
56006;BME280;41888;44.696;10.522;2022-09-13T10:15:24;100336.81;;;29.33;50.65
56006;BME280;41888;44.696;10.522;2022-09-13T10:20:28;100328.69;;;29.87;51.01
56006;BME280;41888;44.696;10.522;2022-09-13T10:25:40;100314.28;;;29.19;51.09
56006;BME280;41888;44.696;10.522;2022-09-13T10:28:15;100321.13;;;29.42;49.64
56006;BME280;41888;44.696;10.522;2022-09-13T10:31:07;100316.72;;;29.91;49.03
56006;BME280;41888;44.696;10.522;2022-09-13T10:33:40;100319.00;;;30.22;47.95
56006;BME280;41888;44.696;10.522;2022-09-13T10:36:19;100321.16;;;30.61;47.93
56006;BME280;41888;44.696;10.522;2022-09-13T10:39:11;100313.97;;;29.70;50.30
56006;BME280;41888;44.696;10.522;2022-09-13T10:41:40;100309.88;;;29.56;51.22
56006;BME280;41888;44.696;10.522;2022-09-13T10:46:57;100322.94;;;30.00;49.80
56006;BME280;41888;44.696;10.522;2022-09-13T10:49:54;100317.56;;;30.04;49.82
56006;BME280;41888;44.696;10.522;2022-09-13T10:52:46;100320.94;;;30.54;49.07
56006;BME280;41888;44.696;10.522;2022-09-13T11:00:20;100305.75;;;29.70;49.70
56006;BME280;41888;44.696;10.522;2022-09-13T11:05:45;100303.41;;;30.02;49.41
56006;BME280;41888;44.696;10.522;2022-09-13T11:10:56;100296.50;;;30.98;48.08
56006;BME280;41888;44.696;10.522;2022-09-13T11:22:09;100276.13;;;31.11;47.30
56006;BME280;41888;44.696;10.522;2022-09-13T11:25:34;100284.06;;;30.43;48.71
56006;BME280;41888;44.696;10.522;2022-09-13T11:44:00;100250.69;;;30.90;47.80
56006;BME280;41888;44.696;10.522;2022-09-13T11:46:53;100261.84;;;30.24;48.62
56006;BME280;41888;44.696;10.522;2022-09-13T11:57:39;100256.19;;;31.02;46.45
56006;BME280;41888;44.696;10.522;2022-09-13T12:00:22;100242.69;;;31.09;44.80
56006;BME280;41888;44.696;10.522;2022-09-13T12:08:34;100249.47;;;29.85;45.94
56006;BME280;41888;44.696;10.522;2022-09-13T12:13:53;100243.81;;;30.47;47.15
56006;BME280;41888;44.696;10.522;2022-09-13T12:21:52;100220.34;;;31.51;44.57
56006;BME280;41888;44.696;10.522;2022-09-13T12:29:31;100216.00;;;31.10;46.03
56006;BME280;41888;44.696;10.522;2022-09-13T12:32:05;100210.66;;;30.77;47.46
56006;BME280;41888;44.696;10.522;2022-09-13T12:53:17;100213.16;;;30.70;45.68
56006;BME280;41888;44.696;10.522;2022-09-13T13:01:23;100209.63;;;31.45;44.19
56006;BME280;41888;44.696;10.522;2022-09-13T13:03:52;100217.34;;;31.83;44.20
56006;BME280;41888;44.696;10.522;2022-09-13T13:08:52;100214.63;;;31.99;43.49
56006;BME280;41888;44.696;10.522;2022-09-13T13:11:40;100210.88;;;31.76;43.76
56006;BME280;41888;44.696;10.522;2022-09-13T13:22:49;100202.88;;;32.14;43.68
56006;BME280;41888;44.696;10.522;2022-09-13T13:25:35;100198.16;;;31.43;45.53
56006;BME280;41888;44.696;10.522;2022-09-13T13:34:25;100192.69;;;31.31;45.67
56006;BME280;41888;44.696;10.522;2022-09-13T13:57:33;100173.88;;;31.45;45.62
56006;BME280;41888;44.696;10.522;2022-09-13T14:00:19;100175.19;;;31.52;44.53
56006;BME280;41888;44.696;10.522;2022-09-13T14:05:29;100175.25;;;31.67;44.78
56006;BME280;41888;44.696;10.522;2022-09-13T14:22:18;100168.53;;;30.73;45.96
56006;BME280;41888;44.696;10.522;2022-09-13T14:24:50;100164.88;;;30.56;46.71
56006;BME280;41888;44.696;10.522;2022-09-13T14:27:33;100175.44;;;30.54;46.37
56006;BME280;41888;44.696;10.522;2022-09-13T14:32:46;100165.69;;;30.69;45.89
56006;BME280;41888;44.696;10.522;2022-09-13T14:35:39;100163.63;;;30.66;45.94
56006;BME280;41888;44.696;10.522;2022-09-13T14:38:24;100159.84;;;30.22;47.10
56006;BME280;41888;44.696;10.522;2022-09-13T14:40:58;100157.97;;;29.90;48.02
56006;BME280;41888;44.696;10.522;2022-09-13T14:43:26;100158.88;;;29.94;48.04
56006;BME280;41888;44.696;10.522;2022-09-13T14:48:59;100153.22;;;29.66;48.37
56006;BME280;41888;44.696;10.522;2022-09-13T14:51:42;100151.13;;;29.96;48.35
56006;BME280;41888;44.696;10.522;2022-09-13T14:54:39;100148.41;;;30.44;47.18
56006;BME280;41888;44.696;10.522;2022-09-13T14:57:17;100149.56;;;30.55;46.32
56006;BME280;41888;44.696;10.522;2022-09-13T14:59:51;100148.41;;;30.32;47.33
56006;BME280;41888;44.696;10.522;2022-09-13T15:02:23;100140.41;;;30.03;47.92
56006;BME280;41888;44.696;10.522;2022-09-13T15:04:52;100146.88;;;29.53;49.18
56006;BME280;41888;44.696;10.522;2022-09-13T15:07:34;100149.19;;;29.63;49.16
56006;BME280;41888;44.696;10.522;2022-09-13T15:10:30;100147.66;;;29.87;48.93
56006;BME280;41888;44.696;10.522;2022-09-13T15:13:07;100145.38;;;29.44;50.25
56006;BME280;41888;44.696;10.522;2022-09-13T15:15:38;100153.91;;;29.42;49.94
56006;BME280;41888;44.696;10.522;2022-09-13T15:23:33;100145.22;;;29.40;50.81
56006;BME280;41888;44.696;10.522;2022-09-13T15:26:17;100140.81;;;29.27;51.66
56006;BME280;41888;44.696;10.522;2022-09-13T15:31:18;100138.00;;;29.15;52.16
56006;BME280;41888;44.696;10.522;2022-09-13T15:33:45;100136.75;;;29.12;51.75
56006;BME280;41888;44.696;10.522;2022-09-13T15:36:26;100133.06;;;29.08;53.01
56006;BME280;41888;44.696;10.522;2022-09-13T15:39:22;100130.53;;;29.03;52.43
56006;BME280;41888;44.696;10.522;2022-09-13T15:41:55;100122.13;;;28.87;53.50
56006;BME280;41888;44.696;10.522;2022-09-13T15:44:23;100136.56;;;28.76;53.81
56006;BME280;41888;44.696;10.522;2022-09-13T15:46:55;100140.78;;;28.65;54.47
56006;BME280;41888;44.696;10.522;2022-09-13T15:49:23;100137.56;;;28.63;55.32
56006;BME280;41888;44.696;10.522;2022-09-13T15:51:54;100128.13;;;28.51;54.90
56006;BME280;41888;44.696;10.522;2022-09-13T15:54:21;100127.13;;;28.56;54.84
56006;BME280;41888;44.696;10.522;2022-09-13T15:56:48;100120.28;;;28.50;55.54
56006;BME280;41888;44.696;10.522;2022-09-13T15:59:19;100131.88;;;28.47;55.67
56006;BME280;41888;44.696;10.522;2022-09-13T16:01:48;100117.38;;;28.46;55.51
56006;BME280;41888;44.696;10.522;2022-09-13T16:04:15;100116.31;;;28.39;55.93
56006;BME280;41888;44.696;10.522;2022-09-13T16:06:42;100120.81;;;28.35;56.39
56006;BME280;41888;44.696;10.522;2022-09-13T16:09:20;100124.41;;;28.27;56.15
56006;BME280;41888;44.696;10.522;2022-09-13T16:11:49;100116.41;;;28.22;57.03
56006;BME280;41888;44.696;10.522;2022-09-13T16:14:16;100112.38;;;28.19;57.39
56006;BME280;41888;44.696;10.522;2022-09-13T16:16:44;100112.56;;;28.14;57.12
56006;BME280;41888;44.696;10.522;2022-09-13T16:19:15;100113.03;;;28.16;57.58
56006;BME280;41888;44.696;10.522;2022-09-13T16:21:42;100124.31;;;28.14;58.02
56006;BME280;41888;44.696;10.522;2022-09-13T16:24:08;100120.59;;;28.10;58.26
56006;BME280;41888;44.696;10.522;2022-09-13T16:26:35;100128.31;;;28.08;58.63
56006;BME280;41888;44.696;10.522;2022-09-13T16:29:01;100126.91;;;28.02;57.94
56006;BME280;41888;44.696;10.522;2022-09-13T16:31:27;100127.56;;;27.99;58.17
56006;BME280;41888;44.696;10.522;2022-09-13T16:33:53;100124.34;;;27.97;58.21
56006;BME280;41888;44.696;10.522;2022-09-13T16:36:20;100127.44;;;27.87;58.35
56006;BME280;41888;44.696;10.522;2022-09-13T16:38:46;100127.16;;;27.80;58.54
56006;BME280;41888;44.696;10.522;2022-09-13T16:41:12;100140.34;;;27.78;58.79
56006;BME280;41888;44.696;10.522;2022-09-13T16:43:39;100141.81;;;27.76;59.36
56006;BME280;41888;44.696;10.522;2022-09-13T16:46:09;100133.63;;;27.76;59.90
56006;BME280;41888;44.696;10.522;2022-09-13T16:48:36;100143.91;;;27.70;60.21